Terminal Aerodrome Forecast
Issued by NWS

Home | Current Version | Previous Version | Text Only | Print | Product List | Glossary On
Versions: 1 2 3 4 5 6 7 8 9 10 11 12 13 14 15 16 17 18 19 20 21 22 23 24 25
000
FTUS43 KDLH 012100 AAD
TAFBRD
TAF AMD
KBRD 012154Z 0122/0218 22020G30KT P6SM SCT030 BKN120
     FM020000 25013G20KT P6SM BKN150
     FM020200 28010KT P6SM SCT120
     FM021500 26015G25KT P6SM SKC=

USA.gov is the U.S. government's official web portal to all federal, state and local government web resources and services.